SJV816 WIII-WIEE
Flight info
| Callsign | SJV816 |
|---|---|
| Flight time | 1h 18m |
| Altitude | 36000 |
| Route | GUDBA T6 LEBEG |
| Aircraft | A320/M-SDE3FGHIRWY/LB1 |
Departure
| Time | 2026-05-06 10:37 |
|---|---|
| Airport | Soekarno-Hatta International Airport (WIII) |
Arrival
| Time | 2026-05-06 11:56 |
|---|---|
| Airport | Minangkabau International Airport (WIEE) |
| Time | Latitude | Longitude | Altitude | Speed | Heading |
|---|---|---|---|---|---|
| 2026-05-06 10:09 | -6.12043 | 106.65082 | 0 ft | 0 kts | 146° |
| 2026-05-06 10:17 | -6.12042 | 106.65082 | 0 ft | 0 kts | 146° |
| 2026-05-06 10:27 | -6.12033 | 106.65076 | 38 ft | 4 kts | 145° |
| 2026-05-06 10:28 | -6.12018 | 106.65065 | 38 ft | 4 kts | 143° |
| 2026-05-06 10:28 | -6.11996 | 106.65048 | 35 ft | 4 kts | 137° |
| 2026-05-06 10:28 | -6.11979 | 106.65029 | 35 ft | 4 kts | 110° |
| 2026-05-06 10:28 | -6.11976 | 106.65015 | 33 ft | 2 kts | 11° |
| 2026-05-06 10:29 | -6.11981 | 106.65014 | 34 ft | 0 kts | 11° |
| 2026-05-06 10:31 | -6.11973 | 106.65016 | 33 ft | 2 kts | 11° |
| 2026-05-06 10:31 | -6.11949 | 106.65014 | 35 ft | 5 kts | 346° |
| 2026-05-06 10:32 | -6.11912 | 106.65003 | 38 ft | 7 kts | 339° |
| 2026-05-06 10:32 | -6.11869 | 106.64972 | 37 ft | 9 kts | 300° |
| 2026-05-06 10:32 | -6.11879 | 106.64909 | 38 ft | 11 kts | 249° |
| 2026-05-06 10:32 | -6.11908 | 106.64833 | 38 ft | 13 kts | 248° |
| 2026-05-06 10:33 | -6.11945 | 106.64743 | 37 ft | 15 kts | 248° |
| 2026-05-06 10:33 | -6.11986 | 106.64639 | 38 ft | 17 kts | 248° |
| 2026-05-06 10:33 | -6.12033 | 106.64521 | 36 ft | 19 kts | 248° |
| 2026-05-06 10:33 | -6.12087 | 106.64387 | 38 ft | 22 kts | 248° |
| 2026-05-06 10:34 | -6.12147 | 106.64238 | 36 ft | 24 kts | 248° |
| 2026-05-06 10:34 | -6.12210 | 106.64080 | 38 ft | 21 kts | 248° |
| 2026-05-06 10:34 | -6.12250 | 106.63978 | 38 ft | 13 kts | 249° |
| 2026-05-06 10:34 | -6.12231 | 106.63897 | 39 ft | 8 kts | 324° |
| 2026-05-06 10:35 | -6.12181 | 106.63882 | 39 ft | 8 kts | 1° |
| 2026-05-06 10:35 | -6.12140 | 106.63895 | 39 ft | 6 kts | 19° |
| 2026-05-06 10:35 | -6.12108 | 106.63897 | 38 ft | 3 kts | 353° |
| 2026-05-06 10:35 | -6.12080 | 106.63905 | 36 ft | 5 kts | 49° |
| 2026-05-06 10:36 | -6.12073 | 106.63924 | 38 ft | 0 kts | 69° |
| 2026-05-06 10:36 | -6.12068 | 106.63937 | 38 ft | 15 kts | 69° |
| 2026-05-06 10:36 | -6.11932 | 106.64278 | 37 ft | 87 kts | 68° |
| 2026-05-06 10:37 | -6.11638 | 106.65022 | 39 ft | 139 kts | 68° |
| 2026-05-06 10:37 | -6.11227 | 106.66063 | 106 ft | 175 kts | 68° |
| 2026-05-06 10:37 | -6.10769 | 106.67216 | 677 ft | 179 kts | 65° |
| 2026-05-06 10:37 | -6.10284 | 106.68375 | 1389 ft | 181 kts | 57° |
| 2026-05-06 10:38 | -6.09360 | 106.69239 | 1936 ft | 192 kts | 34° |
| 2026-05-06 10:38 | -6.08155 | 106.69979 | 2161 ft | 217 kts | 30° |
| 2026-05-06 10:38 | -6.06782 | 106.70736 | 2692 ft | 228 kts | 29° |
| 2026-05-06 10:38 | -6.05397 | 106.71500 | 3552 ft | 229 kts | 29° |
| 2026-05-06 10:39 | -6.03989 | 106.72285 | 4286 ft | 234 kts | 30° |
| 2026-05-06 10:39 | -6.02561 | 106.73103 | 5034 ft | 239 kts | 31° |
| 2026-05-06 10:39 | -6.01119 | 106.73954 | 5815 ft | 243 kts | 32° |
| 2026-05-06 10:39 | -5.99661 | 106.74835 | 6575 ft | 246 kts | 32° |
| 2026-05-06 10:40 | -5.98073 | 106.75453 | 7290 ft | 254 kts | 6° |
| 2026-05-06 10:40 | -5.96349 | 106.75073 | 8039 ft | 261 kts | 329° |
| 2026-05-06 10:40 | -5.95120 | 106.73742 | 8786 ft | 265 kts | 297° |
| 2026-05-06 10:40 | -5.94364 | 106.72039 | 9484 ft | 270 kts | 291° |
| 2026-05-06 10:41 | -5.93663 | 106.70229 | 10041 ft | 283 kts | 291° |
| 2026-05-06 10:41 | -5.92916 | 106.68305 | 10256 ft | 307 kts | 292° |
| 2026-05-06 10:41 | -5.92076 | 106.66280 | 10467 ft | 329 kts | 294° |
| 2026-05-06 10:41 | -5.91116 | 106.64109 | 10738 ft | 347 kts | 295° |
| 2026-05-06 10:42 | -5.90094 | 106.61891 | 11312 ft | 353 kts | 295° |
| 2026-05-06 10:42 | -5.89039 | 106.59640 | 11958 ft | 357 kts | 296° |
| 2026-05-06 10:42 | -5.87974 | 106.57377 | 12601 ft | 360 kts | 295° |
| 2026-05-06 10:42 | -5.87130 | 106.55007 | 13202 ft | 364 kts | 287° |
| 2026-05-06 10:43 | -5.86396 | 106.52558 | 13788 ft | 367 kts | 287° |
| 2026-05-06 10:43 | -5.85663 | 106.50084 | 14371 ft | 371 kts | 287° |
| 2026-05-06 10:43 | -5.84930 | 106.47594 | 14939 ft | 374 kts | 287° |
| 2026-05-06 10:44 | -5.83435 | 106.42543 | 16068 ft | 380 kts | 288° |
| 2026-05-06 10:44 | -5.82651 | 106.40001 | 16621 ft | 383 kts | 288° |
| 2026-05-06 10:44 | -5.81847 | 106.37445 | 17163 ft | 385 kts | 288° |
| 2026-05-06 10:44 | -5.81035 | 106.34874 | 17691 ft | 388 kts | 288° |
| 2026-05-06 10:45 | -5.80219 | 106.32278 | 18212 ft | 391 kts | 288° |
| 2026-05-06 10:45 | -5.79400 | 106.29663 | 18718 ft | 394 kts | 288° |
| 2026-05-06 10:45 | -5.78578 | 106.27028 | 19216 ft | 397 kts | 288° |
| 2026-05-06 10:45 | -5.77753 | 106.24372 | 19694 ft | 400 kts | 288° |
| 2026-05-06 10:46 | -5.76923 | 106.21700 | 20174 ft | 403 kts | 288° |
| 2026-05-06 10:46 | -5.76083 | 106.19004 | 20642 ft | 406 kts | 288° |
| 2026-05-06 10:46 | -5.75239 | 106.16291 | 21099 ft | 408 kts | 288° |
| 2026-05-06 10:46 | -5.74394 | 106.13565 | 21537 ft | 411 kts | 288° |
| 2026-05-06 10:47 | -5.73540 | 106.10811 | 21959 ft | 414 kts | 288° |
| 2026-05-06 10:47 | -5.72683 | 106.08043 | 22384 ft | 417 kts | 288° |
| 2026-05-06 10:47 | -5.71819 | 106.05253 | 22804 ft | 419 kts | 288° |
| 2026-05-06 10:47 | -5.70962 | 106.02485 | 23205 ft | 422 kts | 288° |
| 2026-05-06 10:48 | -5.70073 | 105.99630 | 23601 ft | 425 kts | 289° |
| 2026-05-06 10:48 | -5.69197 | 105.96826 | 23980 ft | 427 kts | 289° |
| 2026-05-06 10:48 | -5.68291 | 105.93933 | 24363 ft | 430 kts | 289° |
| 2026-05-06 10:48 | -5.67395 | 105.91063 | 24713 ft | 433 kts | 288° |
| 2026-05-06 10:49 | -5.66506 | 105.88207 | 25041 ft | 436 kts | 288° |
| 2026-05-06 10:49 | -5.65587 | 105.85257 | 25392 ft | 439 kts | 287° |
| 2026-05-06 10:49 | -5.64683 | 105.82357 | 25736 ft | 441 kts | 287° |
| 2026-05-06 10:49 | -5.63765 | 105.79416 | 26111 ft | 442 kts | 287° |
| 2026-05-06 10:50 | -5.62843 | 105.76463 | 26480 ft | 444 kts | 287° |
| 2026-05-06 10:50 | -5.61917 | 105.73505 | 26860 ft | 444 kts | 286° |
| 2026-05-06 10:50 | -5.60992 | 105.70548 | 27231 ft | 445 kts | 286° |
| 2026-05-06 10:50 | -5.60067 | 105.67586 | 27601 ft | 445 kts | 286° |
| 2026-05-06 10:51 | -5.59142 | 105.64619 | 27958 ft | 445 kts | 286° |
| 2026-05-06 10:51 | -5.58217 | 105.61651 | 28308 ft | 446 kts | 287° |
| 2026-05-06 10:51 | -5.57291 | 105.58671 | 28650 ft | 447 kts | 287° |
| 2026-05-06 10:51 | -5.56157 | 105.55755 | 28977 ft | 449 kts | 296° |
| 2026-05-06 10:52 | -5.54557 | 105.53057 | 29279 ft | 451 kts | 306° |
| 2026-05-06 10:52 | -5.52684 | 105.50515 | 29562 ft | 454 kts | 306° |
| 2026-05-06 10:52 | -5.50809 | 105.47965 | 29858 ft | 456 kts | 306° |
| 2026-05-06 10:52 | -5.48924 | 105.45387 | 30119 ft | 458 kts | 306° |
| 2026-05-06 10:53 | -5.47040 | 105.42802 | 30438 ft | 459 kts | 306° |
| 2026-05-06 10:53 | -5.45153 | 105.40212 | 30768 ft | 460 kts | 306° |
| 2026-05-06 10:53 | -5.43267 | 105.37625 | 31097 ft | 461 kts | 306° |
| 2026-05-06 10:53 | -5.41377 | 105.35036 | 31501 ft | 460 kts | 306° |
| 2026-05-06 10:54 | -5.39484 | 105.32448 | 31868 ft | 460 kts | 306° |
| 2026-05-06 10:54 | -5.37593 | 105.29862 | 32225 ft | 460 kts | 306° |
| 2026-05-06 10:54 | -5.35700 | 105.27274 | 32570 ft | 460 kts | 306° |
| 2026-05-06 10:54 | -5.33807 | 105.24681 | 32910 ft | 461 kts | 306° |
| 2026-05-06 10:55 | -5.31914 | 105.22089 | 33247 ft | 461 kts | 306° |
| 2026-05-06 10:55 | -5.30014 | 105.19495 | 33580 ft | 461 kts | 306° |
| 2026-05-06 10:55 | -5.28110 | 105.16898 | 33901 ft | 462 kts | 306° |
| 2026-05-06 10:55 | -5.26207 | 105.14303 | 34228 ft | 462 kts | 306° |
| 2026-05-06 10:56 | -5.24329 | 105.11737 | 34547 ft | 461 kts | 306° |
| 2026-05-06 10:56 | -5.22433 | 105.09141 | 34876 ft | 461 kts | 306° |
| 2026-05-06 10:56 | -5.20537 | 105.06545 | 35195 ft | 461 kts | 306° |
| 2026-05-06 10:56 | -5.18644 | 105.03960 | 35504 ft | 460 kts | 306° |
| 2026-05-06 10:57 | -5.16726 | 105.01342 | 35752 ft | 460 kts | 306° |
| 2026-05-06 10:57 | -5.12960 | 104.96202 | 35811 ft | 459 kts | 306° |
| 2026-05-06 10:58 | -5.09177 | 104.91042 | 35811 ft | 460 kts | 306° |
| 2026-05-06 10:58 | -5.05382 | 104.85866 | 35811 ft | 460 kts | 306° |
| 2026-05-06 10:59 | -5.01577 | 104.80666 | 35811 ft | 468 kts | 306° |
| 2026-05-06 10:59 | -4.97670 | 104.75337 | 35812 ft | 481 kts | 306° |
| 2026-05-06 11:00 | -4.93675 | 104.69891 | 35810 ft | 487 kts | 306° |
| 2026-05-06 11:00 | -4.89663 | 104.64411 | 35811 ft | 487 kts | 306° |
| 2026-05-06 11:01 | -4.85638 | 104.58934 | 35810 ft | 488 kts | 306° |
| 2026-05-06 11:01 | -4.81611 | 104.53461 | 35812 ft | 488 kts | 306° |
| 2026-05-06 11:02 | -4.77587 | 104.47985 | 35815 ft | 488 kts | 306° |
| 2026-05-06 11:02 | -4.73569 | 104.42507 | 35815 ft | 488 kts | 306° |
| 2026-05-06 11:03 | -4.69556 | 104.37023 | 35814 ft | 488 kts | 306° |
| 2026-05-06 11:03 | -4.65557 | 104.31574 | 35816 ft | 488 kts | 306° |
| 2026-05-06 11:04 | -4.61531 | 104.26098 | 35818 ft | 488 kts | 306° |
| 2026-05-06 11:04 | -4.57504 | 104.20616 | 35819 ft | 488 kts | 306° |
| 2026-05-06 11:05 | -4.53485 | 104.15139 | 35817 ft | 487 kts | 306° |
| 2026-05-06 11:05 | -4.49465 | 104.09661 | 35817 ft | 487 kts | 306° |
| 2026-05-06 11:06 | -4.45445 | 104.04196 | 35813 ft | 487 kts | 306° |
| 2026-05-06 11:06 | -4.41426 | 103.98728 | 35811 ft | 487 kts | 306° |
| 2026-05-06 11:07 | -4.37401 | 103.93262 | 35804 ft | 488 kts | 306° |
| 2026-05-06 11:07 | -4.33368 | 103.87789 | 35801 ft | 488 kts | 306° |
| 2026-05-06 11:08 | -4.29345 | 103.82313 | 35803 ft | 488 kts | 306° |
| 2026-05-06 11:08 | -4.25313 | 103.76825 | 35809 ft | 489 kts | 306° |
| 2026-05-06 11:09 | -4.21271 | 103.71332 | 35814 ft | 491 kts | 306° |
| 2026-05-06 11:09 | -4.17239 | 103.65857 | 35811 ft | 492 kts | 306° |
| 2026-05-06 11:10 | -4.13178 | 103.60340 | 35822 ft | 493 kts | 306° |
| 2026-05-06 11:10 | -4.09112 | 103.54807 | 35819 ft | 493 kts | 306° |
| 2026-05-06 11:11 | -4.05032 | 103.49276 | 35834 ft | 494 kts | 306° |
| 2026-05-06 11:11 | -4.00960 | 103.43750 | 35848 ft | 493 kts | 306° |
| 2026-05-06 11:12 | -3.97577 | 103.39164 | 35850 ft | 492 kts | 306° |
| 2026-05-06 11:12 | -3.92825 | 103.32722 | 35841 ft | 492 kts | 306° |
| 2026-05-06 11:13 | -3.88770 | 103.27195 | 35811 ft | 494 kts | 306° |
| 2026-05-06 11:13 | -3.85393 | 103.22609 | 35811 ft | 489 kts | 306° |
| 2026-05-06 11:14 | -3.81358 | 103.17156 | 35810 ft | 485 kts | 306° |
| 2026-05-06 11:14 | -3.77355 | 103.11725 | 35810 ft | 485 kts | 306° |
| 2026-05-06 11:15 | -3.73343 | 103.06287 | 35809 ft | 485 kts | 306° |
| 2026-05-06 11:15 | -3.69328 | 103.00859 | 35818 ft | 485 kts | 306° |
| 2026-05-06 11:16 | -3.65328 | 102.95434 | 35822 ft | 484 kts | 306° |
| 2026-05-06 11:16 | -3.61323 | 102.89997 | 35798 ft | 486 kts | 306° |
| 2026-05-06 11:17 | -3.57309 | 102.84547 | 35792 ft | 487 kts | 306° |
| 2026-05-06 11:17 | -3.53282 | 102.79086 | 35795 ft | 488 kts | 306° |
| 2026-05-06 11:18 | -3.49242 | 102.73629 | 35814 ft | 488 kts | 306° |
| 2026-05-06 11:18 | -3.45241 | 102.68219 | 35827 ft | 487 kts | 306° |
| 2026-05-06 11:19 | -3.41227 | 102.62768 | 35821 ft | 487 kts | 306° |
| 2026-05-06 11:19 | -3.37204 | 102.57305 | 35821 ft | 487 kts | 306° |
| 2026-05-06 11:20 | -3.33172 | 102.51864 | 35822 ft | 487 kts | 306° |
| 2026-05-06 11:20 | -3.29137 | 102.46415 | 35817 ft | 487 kts | 306° |
| 2026-05-06 11:21 | -3.25111 | 102.40970 | 35825 ft | 487 kts | 306° |
| 2026-05-06 11:21 | -3.21093 | 102.35523 | 35827 ft | 486 kts | 306° |
| 2026-05-06 11:22 | -3.17082 | 102.30084 | 35833 ft | 485 kts | 306° |
| 2026-05-06 11:22 | -3.13067 | 102.24661 | 35835 ft | 484 kts | 306° |
| 2026-05-06 11:23 | -3.09058 | 102.19250 | 35835 ft | 484 kts | 306° |
| 2026-05-06 11:23 | -3.05066 | 102.13840 | 35832 ft | 483 kts | 306° |
| 2026-05-06 11:24 | -3.01066 | 102.08431 | 35817 ft | 484 kts | 306° |
| 2026-05-06 11:24 | -2.97058 | 102.03017 | 35819 ft | 484 kts | 306° |
| 2026-05-06 11:25 | -2.93048 | 101.97597 | 35816 ft | 485 kts | 306° |
| 2026-05-06 11:25 | -2.89026 | 101.92172 | 35814 ft | 486 kts | 306° |
| 2026-05-06 11:26 | -2.85005 | 101.86741 | 35829 ft | 485 kts | 306° |
| 2026-05-06 11:26 | -2.80994 | 101.81314 | 35828 ft | 485 kts | 306° |
| 2026-05-06 11:27 | -2.76997 | 101.75912 | 35826 ft | 485 kts | 306° |
| 2026-05-06 11:27 | -2.72974 | 101.70488 | 35825 ft | 485 kts | 306° |
| 2026-05-06 11:28 | -2.68956 | 101.65069 | 35836 ft | 484 kts | 306° |
| 2026-05-06 11:28 | -2.64959 | 101.59660 | 35839 ft | 482 kts | 306° |
| 2026-05-06 11:29 | -2.60977 | 101.54274 | 35838 ft | 481 kts | 307° |
| 2026-05-06 11:29 | -2.56995 | 101.48907 | 35838 ft | 480 kts | 307° |
| 2026-05-06 11:30 | -2.53017 | 101.43541 | 35836 ft | 480 kts | 307° |
| 2026-05-06 11:30 | -2.49035 | 101.38179 | 35838 ft | 480 kts | 307° |
| 2026-05-06 11:31 | -2.45068 | 101.32816 | 35840 ft | 480 kts | 306° |
| 2026-05-06 11:31 | -2.41098 | 101.27449 | 35849 ft | 480 kts | 307° |
| 2026-05-06 11:32 | -2.37151 | 101.22115 | 35853 ft | 480 kts | 307° |
| 2026-05-06 11:32 | -2.33183 | 101.16769 | 35841 ft | 474 kts | 307° |
| 2026-05-06 11:33 | -2.29321 | 101.11562 | 35838 ft | 462 kts | 307° |
| 2026-05-06 11:33 | -2.25496 | 101.06408 | 35838 ft | 460 kts | 307° |
| 2026-05-06 11:34 | -2.21671 | 101.01251 | 34831 ft | 469 kts | 307° |
| 2026-05-06 11:34 | -2.19711 | 100.98613 | 33971 ft | 474 kts | 306° |
| 2026-05-06 11:34 | -2.17772 | 100.95999 | 33320 ft | 474 kts | 306° |
| 2026-05-06 11:34 | -2.15815 | 100.93358 | 32762 ft | 471 kts | 306° |
| 2026-05-06 11:35 | -2.13870 | 100.90735 | 31969 ft | 472 kts | 306° |
| 2026-05-06 11:35 | -2.11905 | 100.88080 | 31128 ft | 476 kts | 306° |
| 2026-05-06 11:35 | -2.09929 | 100.85411 | 30327 ft | 476 kts | 306° |
| 2026-05-06 11:35 | -2.07940 | 100.82729 | 29438 ft | 479 kts | 307° |
| 2026-05-06 11:36 | -2.05964 | 100.80067 | 28726 ft | 477 kts | 307° |
| 2026-05-06 11:36 | -2.03997 | 100.77416 | 28057 ft | 473 kts | 307° |
| 2026-05-06 11:36 | -2.02043 | 100.74783 | 27407 ft | 469 kts | 307° |
| 2026-05-06 11:36 | -2.00105 | 100.72172 | 26765 ft | 465 kts | 307° |
| 2026-05-06 11:37 | -1.98191 | 100.69590 | 26147 ft | 461 kts | 307° |
| 2026-05-06 11:37 | -1.96294 | 100.67030 | 25530 ft | 456 kts | 308° |
| 2026-05-06 11:37 | -1.94414 | 100.64494 | 24927 ft | 451 kts | 308° |
| 2026-05-06 11:37 | -1.92544 | 100.61973 | 23814 ft | 456 kts | 308° |
| 2026-05-06 11:38 | -1.90585 | 100.59423 | 22457 ft | 465 kts | 313° |
| 2026-05-06 11:38 | -1.88160 | 100.57336 | 21363 ft | 466 kts | 329° |
| 2026-05-06 11:38 | -1.85235 | 100.55951 | 20920 ft | 467 kts | 343° |
| 2026-05-06 11:38 | -1.82113 | 100.55041 | 20356 ft | 466 kts | 346° |
| 2026-05-06 11:39 | -1.78997 | 100.54186 | 19797 ft | 463 kts | 346° |
| 2026-05-06 11:39 | -1.75898 | 100.53365 | 19234 ft | 459 kts | 347° |
| 2026-05-06 11:39 | -1.72812 | 100.52563 | 18677 ft | 456 kts | 347° |
| 2026-05-06 11:39 | -1.69751 | 100.51773 | 18126 ft | 452 kts | 347° |
| 2026-05-06 11:40 | -1.66716 | 100.50989 | 17577 ft | 449 kts | 347° |
| 2026-05-06 11:40 | -1.63710 | 100.50207 | 17035 ft | 446 kts | 346° |
| 2026-05-06 11:40 | -1.60717 | 100.49424 | 16489 ft | 444 kts | 346° |
| 2026-05-06 11:40 | -1.57732 | 100.48639 | 15939 ft | 442 kts | 346° |
| 2026-05-06 11:41 | -1.54772 | 100.47853 | 15314 ft | 439 kts | 345° |
| 2026-05-06 11:41 | -1.51837 | 100.47072 | 14689 ft | 435 kts | 345° |
| 2026-05-06 11:41 | -1.48922 | 100.46301 | 14062 ft | 431 kts | 345° |
| 2026-05-06 11:41 | -1.46044 | 100.45529 | 13435 ft | 426 kts | 342° |
| 2026-05-06 11:42 | -1.43394 | 100.44283 | 12809 ft | 419 kts | 325° |
| 2026-05-06 11:42 | -1.41117 | 100.42496 | 12191 ft | 414 kts | 320° |
| 2026-05-06 11:42 | -1.38913 | 100.40677 | 11561 ft | 409 kts | 320° |
| 2026-05-06 11:42 | -1.36736 | 100.38871 | 10924 ft | 404 kts | 320° |
| 2026-05-06 11:43 | -1.34591 | 100.37079 | 10395 ft | 401 kts | 320° |
| 2026-05-06 11:43 | -1.32466 | 100.35298 | 9888 ft | 393 kts | 320° |
| 2026-05-06 11:43 | -1.30404 | 100.33562 | 9400 ft | 382 kts | 320° |
| 2026-05-06 11:44 | -1.26436 | 100.30217 | 8391 ft | 364 kts | 320° |
| 2026-05-06 11:44 | -1.24517 | 100.28601 | 7891 ft | 357 kts | 320° |
| 2026-05-06 11:44 | -1.22661 | 100.27040 | 7397 ft | 351 kts | 320° |
| 2026-05-06 11:44 | -1.20813 | 100.25486 | 6898 ft | 345 kts | 320° |
| 2026-05-06 11:45 | -1.18982 | 100.23949 | 6465 ft | 338 kts | 320° |
| 2026-05-06 11:45 | -1.17211 | 100.22462 | 6231 ft | 328 kts | 320° |
| 2026-05-06 11:45 | -1.15491 | 100.21020 | 5977 ft | 318 kts | 320° |
| 2026-05-06 11:45 | -1.13719 | 100.19753 | 5725 ft | 310 kts | 328° |
| 2026-05-06 11:46 | -1.11799 | 100.18844 | 5477 ft | 302 kts | 339° |
| 2026-05-06 11:46 | -1.09849 | 100.18121 | 5225 ft | 295 kts | 340° |
| 2026-05-06 11:46 | -1.07941 | 100.17431 | 5035 ft | 287 kts | 340° |
| 2026-05-06 11:46 | -1.06102 | 100.16768 | 5000 ft | 276 kts | 340° |
| 2026-05-06 11:47 | -1.04301 | 100.16120 | 5006 ft | 275 kts | 340° |
| 2026-05-06 11:47 | -1.02455 | 100.15650 | 5006 ft | 275 kts | 356° |
| 2026-05-06 11:47 | -1.00571 | 100.15902 | 5007 ft | 275 kts | 20° |
| 2026-05-06 11:47 | -0.98949 | 100.16905 | 4931 ft | 276 kts | 45° |
| 2026-05-06 11:48 | -0.97895 | 100.18478 | 4632 ft | 273 kts | 70° |
| 2026-05-06 11:48 | -0.97595 | 100.20333 | 4317 ft | 272 kts | 94° |
| 2026-05-06 11:48 | -0.97858 | 100.22200 | 3985 ft | 271 kts | 99° |
| 2026-05-06 11:48 | -0.98144 | 100.24027 | 3841 ft | 259 kts | 99° |
| 2026-05-06 11:49 | -0.98411 | 100.25764 | 3494 ft | 250 kts | 99° |
| 2026-05-06 11:49 | -0.98671 | 100.27464 | 3075 ft | 244 kts | 99° |
| 2026-05-06 11:49 | -0.98927 | 100.29145 | 2998 ft | 244 kts | 98° |
| 2026-05-06 11:49 | -0.99170 | 100.30750 | 2999 ft | 222 kts | 98° |
| 2026-05-06 11:50 | -0.99388 | 100.32195 | 3009 ft | 209 kts | 98° |
| 2026-05-06 11:50 | -0.99480 | 100.32811 | 3009 ft | 207 kts | 98° |
| 2026-05-06 11:50 | -0.99645 | 100.34234 | 3006 ft | 206 kts | 86° |
| 2026-05-06 11:50 | -0.99174 | 100.35555 | 3007 ft | 205 kts | 50° |
| 2026-05-06 11:51 | -0.98033 | 100.36364 | 3008 ft | 204 kts | 14° |
| 2026-05-06 11:51 | -0.96643 | 100.36358 | 3010 ft | 202 kts | 339° |
| 2026-05-06 11:51 | -0.95350 | 100.35789 | 3011 ft | 203 kts | 334° |
| 2026-05-06 11:51 | -0.94068 | 100.35186 | 2977 ft | 204 kts | 334° |
| 2026-05-06 11:52 | -0.92786 | 100.34591 | 2794 ft | 201 kts | 334° |
| 2026-05-06 11:52 | -0.91543 | 100.34017 | 2534 ft | 193 kts | 334° |
| 2026-05-06 11:52 | -0.90340 | 100.33462 | 2293 ft | 187 kts | 334° |
| 2026-05-06 11:52 | -0.89193 | 100.32933 | 2045 ft | 176 kts | 334° |
| 2026-05-06 11:53 | -0.88135 | 100.32445 | 1840 ft | 158 kts | 333° |
| 2026-05-06 11:53 | -0.87166 | 100.31998 | 1625 ft | 150 kts | 333° |
| 2026-05-06 11:53 | -0.86231 | 100.31566 | 1424 ft | 147 kts | 334° |
| 2026-05-06 11:53 | -0.85306 | 100.31139 | 1230 ft | 146 kts | 334° |
| 2026-05-06 11:54 | -0.84382 | 100.30712 | 1039 ft | 146 kts | 335° |
| 2026-05-06 11:54 | -0.83461 | 100.30286 | 842 ft | 146 kts | 335° |
| 2026-05-06 11:54 | -0.82544 | 100.29863 | 650 ft | 144 kts | 335° |
| 2026-05-06 11:54 | -0.81634 | 100.29441 | 456 ft | 144 kts | 336° |
| 2026-05-06 11:55 | -0.80729 | 100.29027 | 237 ft | 143 kts | 335° |
| 2026-05-06 11:55 | -0.79836 | 100.28610 | 88 ft | 142 kts | 335° |
| 2026-05-06 11:55 | -0.78990 | 100.28206 | 39 ft | 123 kts | 335° |
| 2026-05-06 11:55 | -0.78326 | 100.27911 | 26 ft | 83 kts | 334° |
| 2026-05-06 11:56 | -0.77953 | 100.27736 | 27 ft | 37 kts | 335° |
| 2026-05-06 11:56 | -0.77798 | 100.27665 | 27 ft | 21 kts | 334° |
| 2026-05-06 11:56 | -0.77716 | 100.27638 | 28 ft | 9 kts | 335° |
| 2026-05-06 11:56 | -0.77716 | 100.27618 | 28 ft | 1 kts | 202° |
| 2026-05-06 11:57 | -0.77731 | 100.27625 | 28 ft | 5 kts | 149° |
| 2026-05-06 11:57 | -0.77801 | 100.27665 | 27 ft | 18 kts | 154° |
| 2026-05-06 11:57 | -0.77956 | 100.27738 | 27 ft | 31 kts | 154° |
| 2026-05-06 11:57 | -0.78172 | 100.27839 | 23 ft | 36 kts | 154° |
| 2026-05-06 11:58 | -0.78401 | 100.27944 | 26 ft | 37 kts | 155° |
| 2026-05-06 11:58 | -0.78586 | 100.28046 | 27 ft | 14 kts | 121° |
| 2026-05-06 11:58 | -0.78578 | 100.28099 | 27 ft | 6 kts | 45° |
| 2026-05-06 11:58 | -0.78547 | 100.28139 | 27 ft | 8 kts | 63° |
| 2026-05-06 11:59 | -0.78520 | 100.28195 | 27 ft | 10 kts | 65° |
| 2026-05-06 11:59 | -0.78489 | 100.28261 | 24 ft | 11 kts | 65° |
| 2026-05-06 11:59 | -0.78480 | 100.28279 | 24 ft | 2 kts | 65° |
| 2026-05-06 11:59 | -0.78475 | 100.28289 | 24 ft | 2 kts | 57° |
| 2026-05-06 12:00 | -0.78458 | 100.28302 | 24 ft | 7 kts | 35° |
| 2026-05-06 12:00 | -0.78422 | 100.28350 | 24 ft | 6 kts | 64° |
| 2026-05-06 12:00 | -0.78410 | 100.28376 | 25 ft | 6 kts | 65° |
| 2026-05-06 12:00 | -0.78405 | 100.28387 | 25 ft | 1 kts | 65° |
| 2026-05-06 12:01 | -0.78405 | 100.28388 | 25 ft | 0 kts | 65° |